Time;durP1;ratioP1;P1;durP2;ratioP2;P2;SDS_P1;SDS_P2;PMS_P1;PMS_P2;Temp;Humidity;BMP_temperature;BMP_pressure;BME280_temperature;BME280_humidity;BME280_pressure;Samples;Min_cycle;Max_cycle;Signal;HPM_P1;HPM_P2
2023/03/31 00:01:24;;;;;;;43.08;6.53;;;;;;;;;;4887635;29;20025;-77
2023/03/31 00:03:50;;;;;;;42.03;6.68;;;;;;;;;;4895547;29;20029;-78
2023/03/31 00:06:19;;;;;;;41.85;6.53;;;;;;;;;;4896711;29;20116;-78
2023/03/31 00:08:50;;;;;;;35.38;5.88;;;;;;;;;;4893999;29;20032;-77
2023/03/31 00:11:16;;;;;;;37.10;6.32;;;;;;;;;;4912652;29;20120;-77
2023/03/31 00:13:42;;;;;;;31.67;6.38;;;;;;;;;;4895875;29;20067;-77
2023/03/31 00:16:09;;;;;;;43.38;6.97;;;;;;;;;;4916366;29;20037;-79
2023/03/31 00:18:35;;;;;;;38.40;6.35;;;;;;;;;;4908385;29;20088;-76
2023/03/31 00:21:28;;;;;;;34.58;7.00;;;;;;;;;;4911722;29;20072;-82
2023/03/31 00:23:54;;;;;;;;;;;;;;;;;;4921036;29;20017;-75
2023/03/31 00:26:21;;;;;;;42.25;7.50;;;;;;;;;;4910118;29;19914;-76
2023/03/31 00:28:48;;;;;;;40.00;6.05;;;;;;;;;;4905152;29;20460;-75
2023/03/31 00:31:14;;;;;;;34.67;5.60;;;;;;;;;;4895789;29;20030;-76
2023/03/31 00:33:40;;;;;;;41.70;7.22;;;;;;;;;;4894305;29;20051;-75
2023/03/31 00:36:08;;;;;;;42.85;6.80;;;;;;;;;;4895989;29;20056;-77
2023/03/31 00:38:35;;;;;;;40.00;5.97;;;;;;;;;;4904486;29;20033;-77
2023/03/31 00:41:01;;;;;;;41.20;6.15;;;;;;;;;;4893553;29;20463;-76
2023/03/31 00:43:29;;;;;;;42.17;8.32;;;;;;;;;;4920160;29;20065;-76
2023/03/31 00:46:00;;;;;;;29.13;5.07;;;;;;;;;;4898939;29;20028;-78
2023/03/31 00:48:26;;;;;;;42.45;6.90;;;;;;;;;;4896017;29;20467;-77
2023/03/31 00:50:57;;;;;;;30.00;6.47;;;;;;;;;;4905338;29;20031;-77
2023/03/31 00:53:27;;;;;;;35.10;6.20;;;;;;;;;;4891972;29;20041;-76
2023/03/31 00:55:55;;;;;;;34.55;6.13;;;;;;;;;;4921539;29;20925;-77
2023/03/31 00:58:27;;;;;;;36.08;6.30;;;;;;;;;;4893623;29;20036;-77
2023/03/31 01:00:54;;;;;;;38.77;5.17;;;;;;;;;;4925564;29;20048;-76
2023/03/31 01:03:24;;;;;;;38.75;7.03;;;;;;;;;;4894956;29;20288;-76
2023/03/31 01:05:50;;;;;;;40.05;6.50;;;;;;;;;;4901950;29;20049;-76
2023/03/31 01:08:17;;;;;;;39.97;6.85;;;;;;;;;;4894552;29;20127;-77
2023/03/31 01:10:46;;;;;;;34.88;6.28;;;;;;;;;;4919449;29;20056;-75
2023/03/31 01:13:13;;;;;;;44.88;6.68;;;;;;;;;;4915363;29;20482;-75
2023/03/31 01:15:41;;;;;;;37.38;5.75;;;;;;;;;;4891913;29;20036;-79
2023/03/31 01:18:08;;;;;;;39.67;6.72;;;;;;;;;;4891949;29;20462;-76
2023/03/31 01:20:53;;;;;;;29.52;5.68;;;;;;;;;;4893401;29;20036;-75
2023/03/31 01:23:25;;;;;;;29.17;4.95;;;;;;;;;;4895252;29;20140;-75
2023/03/31 01:26:07;;;;;;;38.45;6.13;;;;;;;;;;4897593;29;20038;-75
2023/03/31 01:28:44;;;;;;;25.67;4.40;;;;;;;;;;4892914;29;20053;-75
2023/03/31 01:31:10;;;;;;;40.92;6.68;;;;;;;;;;4909032;29;20025;-76
2023/03/31 01:33:49;;;;;;;38.33;6.45;;;;;;;;;;4893578;29;20039;-76
2023/03/31 01:36:15;;;;;;;27.23;5.55;;;;;;;;;;4893320;29;20036;-76
2023/03/31 01:38:53;;;;;;;31.92;6.25;;;;;;;;;;4887773;29;20603;-76
2023/03/31 01:41:20;;;;;;;29.08;4.47;;;;;;;;;;4890190;29;20496;-75
2023/03/31 01:43:50;;;;;;;46.53;10.48;;;;;;;;;;4901062;29;20025;-76
2023/03/31 01:46:22;;;;;;;25.60;4.60;;;;;;;;;;4907433;29;20032;-76
2023/03/31 01:48:52;;;;;;;33.58;5.28;;;;;;;;;;4925386;29;20359;-74
2023/03/31 01:51:33;;;;;;;27.95;4.32;;;;;;;;;;4884497;29;20029;-75
2023/03/31 01:53:59;;;;;;;29.17;5.20;;;;;;;;;;4891321;29;20387;-76
2023/03/31 01:56:27;;;;;;;33.92;4.78;;;;;;;;;;4892399;29;20028;-76
2023/03/31 01:58:56;;;;;;;36.28;4.57;;;;;;;;;;4911477;29;20085;-76
2023/03/31 02:01:29;;;;;;;34.63;5.57;;;;;;;;;;4886985;29;20024;-76
2023/03/31 02:04:02;;;;;;;39.17;5.63;;;;;;;;;;4892293;29;20024;-74
2023/03/31 02:06:33;;;;;;;29.20;5.15;;;;;;;;;;4890443;29;20029;-77
2023/03/31 02:09:06;;;;;;;30.30;5.57;;;;;;;;;;4893059;29;20028;-76
2023/03/31 02:11:33;;;;;;;45.35;6.47;;;;;;;;;;4890191;29;20351;-74
2023/03/31 02:14:02;;;;;;;36.88;5.75;;;;;;;;;;4921317;29;20544;-75
2023/03/31 02:16:31;;;;;;;38.95;6.60;;;;;;;;;;4890144;29;20085;-75
2023/03/31 02:19:02;;;;;;;30.27;4.75;;;;;;;;;;4907126;29;20025;-77
2023/03/31 02:21:32;;;;;;;28.02;5.30;;;;;;;;;;4887521;29;20047;-76
2023/03/31 02:24:00;;;;;;;37.40;5.40;;;;;;;;;;4886814;29;20047;-74
2023/03/31 02:26:29;;;;;;;29.98;4.63;;;;;;;;;;4907929;29;20040;-75
2023/03/31 02:28:56;;;;;;;33.78;5.53;;;;;;;;;;4893779;29;20060;-76
2023/03/31 02:31:28;;;;;;;33.47;4.75;;;;;;;;;;4894029;29;20048;-76
2023/03/31 02:33:55;;;;;;;38.53;5.75;;;;;;;;;;4892315;29;20032;-73
2023/03/31 02:36:21;;;;;;;28.33;4.70;;;;;;;;;;4907479;29;20039;-74
2023/03/31 02:38:56;;;;;;;37.42;4.82;;;;;;;;;;4923848;29;20036;-74
2023/03/31 02:41:22;;;;;;;36.47;5.15;;;;;;;;;;4889869;29;21727;-75
2023/03/31 02:43:48;;;;;;;32.28;5.10;;;;;;;;;;4907546;29;20025;-75
2023/03/31 02:46:14;;;;;;;30.77;3.72;;;;;;;;;;4893161;29;20116;-75
2023/03/31 02:48:46;;;;;;;26.15;4.25;;;;;;;;;;4891408;29;20021;-75
2023/03/31 02:51:32;;;;;;;25.27;4.95;;;;;;;;;;4904659;29;20059;-75
2023/03/31 02:53:58;;;;;;;28.85;5.63;;;;;;;;;;4887703;29;20029;-75
2023/03/31 02:56:36;;;;;;;32.85;4.47;;;;;;;;;;4892516;29;20482;-75
2023/03/31 02:59:20;;;;;;;22.77;3.78;;;;;;;;;;4893969;29;20037;-76
2023/03/31 03:01:55;;;;;;;19.27;4.07;;;;;;;;;;4887550;29;20021;-75
2023/03/31 03:04:33;;;;;;;25.27;4.80;;;;;;;;;;4908501;29;20016;-75
2023/03/31 03:07:05;;;;;;;27.25;5.53;;;;;;;;;;4891071;29;20562;-78
2023/03/31 03:09:31;;;;;;;;;;;;;;;;;;4892709;29;20279;-75
2023/03/31 03:12:03;;;;;;;23.67;4.10;;;;;;;;;;4891217;29;20044;-75
2023/03/31 03:14:44;;;;;;;25.42;5.70;;;;;;;;;;4909928;29;20382;-74
2023/03/31 03:17:16;;;;;;;18.50;3.42;;;;;;;;;;4892269;29;20542;-74
2023/03/31 03:19:42;;;;;;;24.00;4.07;;;;;;;;;;4891888;29;20067;-74
2023/03/31 03:22:09;;;;;;;22.90;3.70;;;;;;;;;;4889883;29;20136;-75
2023/03/31 03:24:35;;;;;;;23.90;3.97;;;;;;;;;;4882459;29;20024;-73
2023/03/31 03:27:01;;;;;;;26.27;4.10;;;;;;;;;;4897497;29;20025;-75
2023/03/31 03:29:27;;;;;;;20.83;3.35;;;;;;;;;;4914193;29;20735;-73
2023/03/31 03:31:53;;;;;;;22.88;4.25;;;;;;;;;;4903019;29;20028;-74
2023/03/31 03:34:19;;;;;;;19.73;4.20;;;;;;;;;;4912405;29;20158;-74
2023/03/31 03:36:46;;;;;;;24.02;4.05;;;;;;;;;;4894164;29;20040;-76
2023/03/31 03:39:15;;;;;;;17.15;3.78;;;;;;;;;;4925496;29;20027;-76
2023/03/31 03:41:49;;;;;;;21.35;4.30;;;;;;;;;;4919279;29;20040;-78
2023/03/31 03:44:28;;;;;;;;;;;;;;;;;;;;;
2023/03/31 03:47:08;;;;;;;27.38;4.47;;;;;;;;;;4894888;29;20025;-75
2023/03/31 03:49:34;;;;;;;21.58;4.80;;;;;;;;;;4895439;29;20039;-75
2023/03/31 03:52:03;;;;;;;22.40;4.25;;;;;;;;;;4911861;29;20162;-76
2023/03/31 03:54:34;;;;;;;16.27;5.03;;;;;;;;;;4922242;29;20033;-78
2023/03/31 03:57:29;;;;;;;20.55;4.28;;;;;;;;;;4882730;29;20045;-78
2023/03/31 05:02:22;;;;;;;20.38;5.97;;;;;;;;;;4884762;29;20513;-76
2023/03/31 05:05:07;;;;;;;19.08;6.38;;;;;;;;;;4890870;29;20040;-75
2023/03/31 05:08:08;;;;;;;22.08;6.70;;;;;;;;;;4888162;29;20056;-75
2023/03/31 05:10:59;;;;;;;21.55;6.00;;;;;;;;;;4884141;29;20569;-75
2023/03/31 05:14:19;;;;;;;;;;;;;;;;;;;;;
2023/03/31 05:16:38;;;;;;;20.00;6.97;;;;;;;;;;4882532;29;20040;-74
2023/03/31 05:27:22;;;;;;;17.70;7.68;;;;;;;;;;4113064;27;20064;-74
2023/03/31 05:29:50;;;;;;;16.20;6.43;;;;;;;;;;4889137;29;20033;-74
2023/03/31 05:59:15;;;;;;;18.88;6.22;;;;;;;;;;4876703;29;20486;-75
2023/03/31 06:02:27;;;;;;;;;;;;;;;;;;;;;
2023/03/31 06:05:30;;;;;;;;;;;;;;;;;;;;;
2023/03/31 06:11:12;;;;;;;17.13;5.28;;;;;;;;;;4914647;29;20545;-78
2023/03/31 06:14:18;;;;;;;15.55;5.25;;;;;;;;;;4903136;29;20403;-77
2023/03/31 06:16:53;;;;;;;12.68;4.10;;;;;;;;;;4887824;29;20434;-77
2023/03/31 06:19:19;;;;;;;13.18;4.72;;;;;;;;;;4874896;29;20044;-77
2023/03/31 06:21:53;;;;;;;16.27;4.95;;;;;;;;;;4875942;29;20033;-77
2023/03/31 06:24:36;;;;;;;18.17;4.20;;;;;;;;;;4851968;29;20426;-76
2023/03/31 06:27:03;;;;;;;14.00;4.03;;;;;;;;;;4891963;29;20040;-76
2023/03/31 06:29:29;;;;;;;12.07;4.35;;;;;;;;;;4868467;29;20043;-76
2023/03/31 06:31:55;;;;;;;18.80;5.28;;;;;;;;;;4885634;29;20098;-75
2023/03/31 06:34:24;;;;;;;13.07;4.10;;;;;;;;;;4872546;29;20037;-74
2023/03/31 06:36:56;;;;;;;27.67;13.20;;;;;;;;;;4887237;29;20497;-76
2023/03/31 06:39:22;;;;;;;12.48;3.90;;;;;;;;;;4880396;29;20056;-76
2023/03/31 06:41:48;;;;;;;8.57;3.35;;;;;;;;;;4874733;29;20037;-77
2023/03/31 06:44:15;;;;;;;16.10;4.53;;;;;;;;;;4874331;29;20123;-76
2023/03/31 06:46:42;;;;;;;10.07;3.90;;;;;;;;;;4891452;29;20044;-76
2023/03/31 06:49:08;;;;;;;11.32;3.75;;;;;;;;;;4906801;29;20092;-77
2023/03/31 06:51:34;;;;;;;10.40;3.92;;;;;;;;;;4878860;29;20029;-76
2023/03/31 06:54:00;;;;;;;13.80;4.30;;;;;;;;;;4909748;29;20036;-77
2023/03/31 06:56:26;;;;;;;9.18;3.70;;;;;;;;;;4907637;29;20131;-78
2023/03/31 06:58:52;;;;;;;12.20;3.47;;;;;;;;;;4876467;29;20139;-77
2023/03/31 07:01:19;;;;;;;9.88;3.35;;;;;;;;;;4890184;29;20517;-77
2023/03/31 07:03:45;;;;;;;7.97;3.40;;;;;;;;;;4893463;29;20032;-78
2023/03/31 07:06:11;;;;;;;6.60;2.95;;;;;;;;;;4907996;29;20038;-78
2023/03/31 07:08:37;;;;;;;9.50;3.15;;;;;;;;;;4893396;29;20120;-77
2023/03/31 07:11:03;;;;;;;11.35;3.15;;;;;;;;;;4896740;29;20040;-76
2023/03/31 07:13:29;;;;;;;13.15;3.90;;;;;;;;;;4878498;29;20033;-76
2023/03/31 07:15:55;;;;;;;8.25;3.05;;;;;;;;;;4893800;29;20414;-76
2023/03/31 07:18:24;;;;;;;18.70;4.03;;;;;;;;;;4891805;29;20394;-75
2023/03/31 07:20:51;;;;;;;10.88;3.70;;;;;;;;;;4896933;29;20119;-76
2023/03/31 07:23:17;;;;;;;13.80;3.50;;;;;;;;;;4897455;29;20036;-76
2023/03/31 07:25:44;;;;;;;7.63;3.17;;;;;;;;;;4907792;29;20187;-75
2023/03/31 07:28:11;;;;;;;9.93;3.20;;;;;;;;;;4912540;29;20060;-76
2023/03/31 07:30:37;;;;;;;10.93;3.47;;;;;;;;;;4896347;29;20502;-76
2023/03/31 07:33:03;;;;;;;8.88;3.20;;;;;;;;;;4883033;29;20037;-76
2023/03/31 07:35:29;;;;;;;8.07;2.97;;;;;;;;;;4885652;29;20478;-75
2023/03/31 07:37:55;;;;;;;8.45;2.95;;;;;;;;;;4880778;29;20115;-75
2023/03/31 07:40:23;;;;;;;8.90;2.90;;;;;;;;;;4868297;29;20486;-79
2023/03/31 07:42:50;;;;;;;10.50;3.22;;;;;;;;;;4912515;29;20104;-78
2023/03/31 07:45:45;;;;;;;7.72;3.22;;;;;;;;;;4909518;29;20085;-80
2023/03/31 07:51:36;;;;;;;9.68;3.22;;;;;;;;;;4888214;29;20048;-76
2023/03/31 07:54:11;;;;;;;10.95;3.83;;;;;;;;;;4871533;29;20029;-77
2023/03/31 07:56:42;;;;;;;6.75;3.85;;;;;;;;;;4897071;29;20072;-76
2023/03/31 07:59:08;;;;;;;10.35;6.53;;;;;;;;;;4892594;29;20044;-78
2023/03/31 08:01:49;;;;;;;9.07;3.72;;;;;;;;;;4887154;29;20091;-79
2023/03/31 08:04:18;;;;;;;8.80;3.88;;;;;;;;;;4888330;29;20024;-79
2023/03/31 08:19:58;;;;;;;8.68;3.67;;;;;;;;;;4871406;29;20089;-78
2023/03/31 08:22:24;;;;;;;15.45;4.20;;;;;;;;;;4861087;29;20049;-77
2023/03/31 08:25:00;;;;;;;8.23;3.42;;;;;;;;;;4859083;29;20041;-77
2023/03/31 08:27:26;;;;;;;8.05;3.10;;;;;;;;;;4852122;29;20655;-77
2023/03/31 08:30:12;;;;;;;13.02;4.25;;;;;;;;;;4841641;29;20038;-77
2023/03/31 08:32:38;;;;;;;11.77;3.47;;;;;;;;;;4824340;29;20074;-77
2023/03/31 08:35:15;;;;;;;9.90;3.47;;;;;;;;;;4837147;29;20045;-79
2023/03/31 08:40:36;;;;;;;10.20;4.43;;;;;;;;;;4893035;29;20498;-77
2023/03/31 08:43:31;;;;;;;9.90;2.80;;;;;;;;;;4900686;29;20025;-79
2023/03/31 08:46:17;;;;;;;11.10;3.30;;;;;;;;;;4900218;29;20029;-79
2023/03/31 08:48:49;;;;;;;10.73;3.10;;;;;;;;;;4901137;29;20120;-77
2023/03/31 08:51:20;;;;;;;;;;;;;;;;;;4906226;29;20100;-80
2023/03/31 08:54:15;;;;;;;9.13;2.83;;;;;;;;;;4894006;29;19911;-80
2023/03/31 08:56:47;;;;;;;12.93;4.20;;;;;;;;;;4886841;29;20045;-77
2023/03/31 09:09:48;;;;;;;13.45;3.63;;;;;;;;;;4856629;29;20041;-79
2023/03/31 09:12:32;;;;;;;12.80;4.30;;;;;;;;;;4849071;29;20098;-78
2023/03/31 09:15:09;;;;;;;11.27;3.80;;;;;;;;;;4838796;29;20029;-80
2023/03/31 09:17:41;;;;;;;16.77;4.68;;;;;;;;;;4823891;29;20135;-77
2023/03/31 09:20:17;;;;;;;11.70;4.20;;;;;;;;;;4864730;29;20048;-78
2023/03/31 09:23:24;;;;;;;15.30;4.45;;;;;;;;;;4905590;29;20033;-77
2023/03/31 09:26:15;;;;;;;11.00;3.72;;;;;;;;;;4876382;29;20113;-78
2023/03/31 09:29:23;;;;;;;11.07;3.35;;;;;;;;;;4880217;29;20050;-77
2023/03/31 09:32:23;;;;;;;;;;;;;;;;;;;;;
2023/03/31 09:41:52;;;;;;;10.93;3.40;;;;;;;;;;4867774;29;20057;-78
2023/03/31 09:50:33;;;;;;;8.73;3.80;;;;;;;;;;4897567;29;20039;-77
2023/03/31 09:53:00;;;;;;;7.65;2.85;;;;;;;;;;4914513;29;20123;-79
2023/03/31 09:55:33;;;;;;;9.60;3.13;;;;;;;;;;4904851;29;20072;-77
2023/03/31 09:58:01;;;;;;;5.95;2.88;;;;;;;;;;4925867;29;20040;-77
2023/03/31 10:00:28;;;;;;;9.38;3.42;;;;;;;;;;4895683;29;20165;-76
2023/03/31 10:02:55;;;;;;;4.60;2.45;;;;;;;;;;4893782;29;20040;-77
2023/03/31 10:05:21;;;;;;;7.55;3.20;;;;;;;;;;4880232;29;20521;-80
2023/03/31 10:08:34;;;;;;;8.85;2.88;;;11.80;99.90;;;;;;4907128;29;20509;-78
2023/03/31 10:11:23;;;;;;;8.57;3.15;;;;;;;;;;4881084;29;20513;-77
2023/03/31 10:17:12;;;;;;;;;;;;;;;;;;4916829;29;20060;-79
2023/03/31 10:19:46;;;;;;;9.40;4.07;;;;;;;;;;4904572;29;19969;-78
2023/03/31 10:22:26;;;;;;;9.00;3.60;;;;;;;;;;4907489;29;20084;-79
2023/03/31 10:25:07;;;;;;;8.32;3.53;;;;;;;;;;4877748;29;20056;-78
2023/03/31 10:27:33;;;;;;;7.13;2.70;;;;;;;;;;4902654;29;20059;-80
2023/03/31 10:30:15;;;;;;;15.40;4.00;;;;;;;;;;4903219;29;20115;-80
2023/03/31 10:32:42;;;;;;;10.30;3.75;;;;;;;;;;4890717;29;20044;-78
2023/03/31 10:35:20;;;;;;;10.80;3.80;;;;;;;;;;4894676;29;20372;-80
2023/03/31 10:37:57;;;;;;;13.20;4.05;;;;;;;;;;4895855;29;20027;-79
2023/03/31 10:41:10;;;;;;;;;;;;;;;;;;;;;
2023/03/31 10:46:51;;;;;;;7.18;2.78;;;;;;;;;;4884096;29;20183;-80
2023/03/31 10:53:18;;;;;;;8.52;3.05;;;;;;;;;;4899276;29;20420;-81
2023/03/31 10:59:38;;;;;;;8.65;2.17;;;;;;;;;;4853922;29;20088;-79
2023/03/31 11:02:49;;;;;;;7.70;3.20;;;;;;;;;;4803734;29;20387;-79
2023/03/31 11:05:24;;;;;;;7.07;2.53;;;;;;;;;;4808296;29;20061;-79
2023/03/31 11:08:17;;;;;;;10.15;3.40;;;;;;;;;;4850775;29;20392;-79
2023/03/31 11:11:05;;;;;;;10.27;2.72;;;;;;;;;;4860322;29;20494;-79
2023/03/31 11:16:49;;;;;;;9.93;3.83;;;;;;;;;;4858462;29;20052;-78
2023/03/31 11:19:33;;;;;;;9.70;2.58;;;;;;;;;;4860634;29;20524;-80
2023/03/31 11:22:06;;;;;;;7.70;2.20;;;;;;;;;;4862677;29;20040;-80
2023/03/31 11:24:40;;;;;;;10.52;2.70;;;;;;;;;;4872466;29;20049;-78
2023/03/31 11:27:20;;;;;;;8.70;2.00;;;;;;;;;;4880027;29;20034;-79
2023/03/31 11:30:16;;;;;;;6.10;2.10;;;;;;;;;;4860502;29;20036;-78
2023/03/31 11:36:21;;;;;;;14.23;3.38;;;;;;;;;;4894893;29;20071;-80
2023/03/31 11:38:56;;;;;;;14.25;3.20;;;;;;;;;;4895931;29;20074;-80
2023/03/31 11:41:37;;;;;;;21.95;3.63;;;;;;;;;;4876553;29;20029;-81
2023/03/31 11:44:11;;;;;;;7.53;2.20;;;;;;;;;;4883749;29;20087;-81
2023/03/31 11:46:40;;;;;;;10.80;2.67;;;;;;;;;;4861993;29;20137;-80
2023/03/31 11:49:12;;;;;;;9.82;2.47;;;;;;;;;;4860528;29;20033;-80
2023/03/31 11:51:38;;;;;;;10.98;3.03;;;;;;;;;;4860718;29;20383;-79
2023/03/31 11:54:10;;;;;;;9.07;3.15;;;;;;;;;;4874426;29;20115;-80
2023/03/31 11:56:38;;;;;;;9.38;3.55;;;;;;;;;;4869005;29;20145;-79
2023/03/31 11:59:06;;;;;;;15.65;3.95;;;;;;;;;;4874749;29;20110;-80
2023/03/31 12:01:38;;;;;;;11.55;3.80;;;;;;;;;;4905440;29;20029;-79
2023/03/31 12:04:09;;;;;;;12.70;3.05;;;;;;;;;;4894834;29;20037;-79
2023/03/31 12:06:38;;;;;;;11.60;3.25;;;;;;;;;;4896903;29;20084;-79
2023/03/31 12:09:07;;;;;;;10.18;3.55;;;;;;;;;;4897392;29;20520;-79
2023/03/31 12:11:36;;;;;;;10.45;3.53;;;;;;;;;;4910865;29;20029;-78
2023/03/31 12:14:22;;;;;;;12.32;4.55;;;;;;;;;;4896165;29;20028;-79
2023/03/31 12:17:11;;;;;;;11.00;3.83;;;;;;;;;;4908408;29;20075;-79
2023/03/31 12:19:45;;;;;;;11.38;2.63;;;;;;;;;;4891674;29;20064;-78
2023/03/31 12:22:11;;;;;;;16.70;4.10;;;;;;;;;;4912700;29;20031;-80
2023/03/31 12:24:38;;;;;;;16.38;4.32;;;;;;;;;;4907625;29;20032;-79
2023/03/31 12:27:04;;;;;;;14.27;3.67;;;;;;;;;;4909193;29;20033;-79
2023/03/31 12:29:34;;;;;;;16.27;4.28;;;;;;;;;;4907194;29;20124;-79
2023/03/31 12:32:03;;;;;;;15.60;3.97;;;;;;;;;;4908705;29;20097;-78
2023/03/31 12:34:34;;;;;;;11.50;3.60;;;;;;;;;;4912862;29;20033;-78
2023/03/31 12:37:09;;;;;;;14.88;2.80;;;;;;;;;;4896532;29;20037;-79
2023/03/31 12:39:44;;;;;;;10.50;3.90;;;;;;;;;;4880857;29;20037;-79
2023/03/31 12:42:20;;;;;;;10.40;3.17;;;;;;;;;;4896260;29;20088;-80
2023/03/31 12:45:09;;;;;;;13.75;3.47;;;;;;;;;;4911854;29;20032;-79
2023/03/31 12:47:41;;;;;;;12.00;3.28;;;;;;;;;;4896670;29;20040;-78
2023/03/31 12:50:19;;;;;;;;;;;13.40;99.90;;;;;;4912220;29;20044;-79
2023/03/31 12:52:59;;;;;;;15.05;3.85;;;;;;;;;;4907753;29;19915;-78
2023/03/31 12:55:28;;;;;;;20.25;5.15;;;;;;;;;;4911670;29;20068;-80
2023/03/31 12:58:14;;;;;;;8.55;2.20;;;;;;;;;;4891491;29;20372;-79
2023/03/31 13:01:00;;;;;;;10.63;3.30;;;;;;;;;;4897789;29;20055;-80
2023/03/31 13:03:36;;;;;;;13.45;1.90;;;;;;;;;;4891701;29;20344;-79
2023/03/31 13:06:02;;;;;;;8.48;2.03;;;;;;;;;;4905539;29;20056;-80
2023/03/31 13:08:53;;;;;;;7.25;1.75;;;12.20;99.90;;;;;;4892764;29;20371;-79
2023/03/31 13:11:21;;;;;;;10.25;1.95;;;;;;;;;;4900732;29;20029;-79
2023/03/31 13:14:01;;;;;;;9.48;3.65;;;;;;;;;;4902737;29;20032;-78
2023/03/31 13:16:27;;;;;;;7.50;1.85;;;;;;;;;;4902709;29;20616;-77
2023/03/31 13:18:54;;;;;;;12.65;2.20;;;;;;;;;;4896420;29;20108;-78
2023/03/31 13:21:21;;;;;;;9.80;2.78;;;;;;;;;;4893177;29;20500;-79
2023/03/31 13:23:47;;;;;;;10.18;1.60;;;;;;;;;;4879247;29;20032;-80
2023/03/31 13:26:33;;;;;;;6.63;2.03;;;;;;;;;;4899245;29;20055;-78
2023/03/31 13:29:17;;;;;;;5.97;1.50;;;;;;;;;;4901005;29;20052;-77
2023/03/31 13:32:02;;;;;;;64.72;45.33;;;;;;;;;;4894926;29;20033;-81
2023/03/31 13:34:48;;;;;;;20.95;8.55;;;;;;;;;;4891976;29;20087;-78
2023/03/31 13:37:43;;;;;;;7.45;1.77;;;13.30;99.90;;;;;;4884782;29;20108;-76
2023/03/31 13:40:12;;;;;;;7.88;1.42;;;;;;;;;;4876943;29;20037;-77
2023/03/31 13:42:45;;;;;;;44.97;2.92;;;;;;;;;;4893109;29;20033;-77
2023/03/31 13:45:29;;;;;;;7.88;1.63;;;;;;;;;;4891727;29;20453;-77
2023/03/31 13:48:16;;;;;;;13.57;3.25;;;;;;;;;;4874068;29;20108;-76
2023/03/31 13:50:53;;;;;;;6.90;2.22;;;;;;;;;;4886171;29;20431;-76
2023/03/31 13:53:27;;;;;;;9.02;1.85;;;;;;;;;;4884447;29;20405;-75
2023/03/31 13:56:12;;;;;;;6.32;1.92;;;;;;;;;;4889969;29;20430;-75
2023/03/31 13:58:43;;;;;;;6.95;2.10;;;;;;;;;;4883912;29;20037;-74
2023/03/31 14:01:10;;;;;;;8.18;1.80;;;;;;;;;;4881872;29;20087;-81
2023/03/31 14:04:08;;;;;;;9.07;2.15;;;;;;;;;;4897069;29;20044;-77
2023/03/31 14:06:40;;;;;;;7.00;1.70;;;;;;;;;;4896122;29;20525;-76
2023/03/31 14:09:10;;;;;;;6.20;1.63;;;;;;;;;;4880434;29;20136;-79
2023/03/31 14:11:36;;;;;;;6.90;1.60;;;;;;;;;;4889629;29;20855;-75
2023/03/31 14:14:14;;;;;;;9.45;1.77;;;;;;;;;;4869623;29;20475;-76
2023/03/31 14:16:43;;;;;;;5.35;1.73;;;;;;;;;;4877501;29;20124;-82
2023/03/31 14:19:50;;;;;;;7.53;1.75;;;13.40;99.90;;;;;;4892527;29;20033;-80
2023/03/31 14:22:16;;;;;;;5.35;1.50;;;;;;;;;;4883158;29;20073;-72
2023/03/31 14:24:48;;;;;;;6.32;1.98;;;;;;;;;;4893483;29;20033;-81
2023/03/31 14:27:28;;;;;;;7.13;1.95;;;;;;;;;;4906690;29;20108;-78
2023/03/31 14:30:05;;;;;;;7.18;2.17;;;;;;;;;;4901286;29;20115;-79
2023/03/31 14:32:34;;;;;;;9.80;2.22;;;;;;;;;;4894831;29;20474;-78
2023/03/31 14:35:22;;;;;;;4.78;1.40;;;;;;;;;;4909993;29;20067;-79
2023/03/31 14:37:48;;;;;;;4.15;1.95;;;;;;;;;;4890539;29;20052;-79
2023/03/31 14:40:16;;;;;;;7.28;1.95;;;;;;;;;;4876161;29;20025;-78
2023/03/31 14:42:48;;;;;;;8.80;3.13;;;;;;;;;;4908403;29;20036;-80
2023/03/31 14:45:20;;;;;;;12.00;3.17;;;;;;;;;;4886986;29;20084;-83
2023/03/31 14:47:48;;;;;;;;;;;;;;;;;;4893677;29;20385;-84
2023/03/31 14:50:15;;;;;;;7.18;1.52;;;;;;;;;;4904957;29;19915;-81
2023/03/31 14:52:46;;;;;;;9.98;2.25;;;;;;;;;;4896028;29;20037;-80
2023/03/31 14:55:16;;;;;;;7.43;1.85;;;;;;;;;;4910126;29;20083;-81
2023/03/31 14:57:43;;;;;;;11.40;3.67;;;;;;;;;;4909708;29;20036;-81
2023/03/31 15:00:16;;;;;;;16.40;5.07;;;;;;;;;;4893750;29;20144;-83
2023/03/31 15:02:43;;;;;;;14.05;3.00;;;;;;;;;;4884387;29;20029;-82
2023/03/31 15:05:30;;;;;;;6.45;2.17;;;;;;;;;;4888310;29;20041;-82
2023/03/31 15:08:25;;;;;;;11.98;2.13;;;;;;;;;;4880491;29;20572;-82
2023/03/31 15:10:58;;;;;;;8.63;2.72;;;;;;;;;;4885778;29;20052;-87
2023/03/31 15:13:35;;;;;;;7.47;3.25;;;;;;;;;;4885795;29;20497;-85
2023/03/31 15:16:21;;;;;;;14.25;4.18;;;;;;;;;;4894831;29;20041;-82
2023/03/31 15:18:47;;;;;;;9.45;3.75;;;;;;;;;;4889652;29;20044;-83
2023/03/31 15:21:24;;;;;;;13.20;3.95;;;;;;;;;;4883713;29;20509;-78
2023/03/31 15:23:57;;;;;;;8.00;3.40;;;;;;;;;;4883019;29;20123;-80
2023/03/31 15:26:31;;;;;;;8.07;2.10;;;;;;;;;;4886631;29;20048;-80
2023/03/31 15:29:03;;;;;;;7.00;2.45;;;;;;;;;;4891125;29;20039;-79
2023/03/31 15:31:29;;;;;;;7.97;2.78;;;;;;;;;;4898492;29;20186;-79
2023/03/31 15:33:55;;;;;;;7.70;2.42;;;;;;;;;;4878345;29;20121;-80
2023/03/31 15:36:22;;;;;;;8.82;2.70;;;;;;;;;;4892787;29;20079;-78
2023/03/31 15:38:58;;;;;;;8.85;2.58;;;;;;;;;;4879398;29;20029;-80
2023/03/31 15:41:28;;;;;;;12.15;2.55;;;;;;;;;;4881432;29;20081;-78
2023/03/31 15:44:06;;;;;;;8.07;1.77;;;;;;;;;;4898758;29;20032;-78
2023/03/31 15:46:38;;;;;;;5.50;1.73;;;;;;;;;;4889056;29;20036;-77
2023/03/31 15:49:05;;;;;;;8.05;3.72;;;;;;;;;;4895941;29;20128;-82
2023/03/31 15:51:42;;;;;;;4.95;1.98;;;;;;;;;;4896457;29;20025;-80
2023/03/31 15:54:44;;;;;;;9.27;3.92;;;;;;;;;;4885355;29;20025;-82
2023/03/31 15:57:15;;;;;;;11.98;4.68;;;;;;;;;;4893493;29;20048;-80
2023/03/31 16:00:16;;;;;;;;;;;;;;;;;;;;;
2023/03/31 16:05:40;;;;;;;9.73;2.70;;;;;;;;;;4888041;29;20100;-78
2023/03/31 16:08:11;;;;;;;13.95;4.05;;;;;;;;;;4897444;29;20044;-78
2023/03/31 16:10:38;;;;;;;14.97;3.13;;;;;;;;;;4912212;29;20067;-77
2023/03/31 16:13:06;;;;;;;7.80;2.97;;;;;;;;;;4903946;29;20025;-76
2023/03/31 16:15:34;;;;;;;8.35;3.78;;;;;;;;;;4890008;29;20068;-76
2023/03/31 16:18:13;;;;;;;9.10;3.85;;;;;;;;;;4891157;29;20435;-76
2023/03/31 16:20:44;;;;;;;12.23;4.70;;;;;;;;;;4877668;29;20025;-75
2023/03/31 16:23:19;;;;;;;11.70;4.90;;;;;;;;;;4886078;29;20450;-75
2023/03/31 16:25:45;;;;;;;12.07;4.40;;;;;;;;;;4900143;29;20048;-75
2023/03/31 16:28:16;;;;;;;16.73;5.63;;;;;;;;;;4903933;29;20350;-76
2023/03/31 16:30:43;;;;;;;14.48;5.65;;;;;;;;;;4891555;29;20041;-75
2023/03/31 16:33:13;;;;;;;9.70;2.97;;;;;;;;;;4896371;29;20080;-75
2023/03/31 16:35:40;;;;;;;9.98;3.67;;;;;;;;;;4880197;29;20100;-75
2023/03/31 16:38:07;;;;;;;9.48;3.15;;;;;;;;;;4901299;29;20025;-76
2023/03/31 16:40:36;;;;;;;10.93;3.25;;;;;;;;;;4897792;29;20059;-75
2023/03/31 16:43:10;;;;;;;7.40;3.53;;;;;;;;;;4897528;29;20041;-75
2023/03/31 16:45:36;;;;;;;10.88;3.28;;;;;;;;;;4895103;29;20068;-76
2023/03/31 16:48:02;;;;;;;10.38;2.75;;;;;;;;;;4911924;29;20032;-76
2023/03/31 16:50:30;;;;;;;10.27;3.08;;;;;;;;;;4896103;29;20454;-76
2023/03/31 16:52:58;;;;;;;7.28;2.13;;;;;;;;;;4879160;29;20037;-76
2023/03/31 16:55:24;;;;;;;5.15;1.60;;;;;;;;;;4911906;29;20033;-76
2023/03/31 16:57:51;;;;;;;9.13;2.70;;;;;;;;;;4887398;29;20040;-76
2023/03/31 17:00:18;;;;;;;9.77;2.75;;;;;;;;;;4892166;29;20060;-76
2023/03/31 17:02:44;;;;;;;8.13;2.70;;;;;;;;;;4911606;29;20386;-76
2023/03/31 17:05:10;;;;;;;12.52;3.47;;;;;;;;;;4900945;29;20459;-78
2023/03/31 17:07:36;;;;;;;6.18;2.33;;;;;;;;;;4877811;29;20475;-77
2023/03/31 17:10:05;;;;;;;6.93;2.10;;;;;;;;;;4890387;29;20084;-77
2023/03/31 17:12:31;;;;;;;6.65;2.05;;;;;;;;;;4875255;29;20156;-77
2023/03/31 17:14:57;;;;;;;9.88;2.30;;;;;;;;;;4898727;29;20032;-76
2023/03/31 17:17:23;;;;;;;5.70;2.50;;;;;;;;;;4907665;29;20068;-76
2023/03/31 17:19:49;;;;;;;5.30;2.40;;;;;;;;;;4879740;29;20036;-76
2023/03/31 17:22:15;;;;;;;7.63;3.90;;;;;;;;;;4908895;29;20067;-76
2023/03/31 17:24:41;;;;;;;6.57;3.22;;;;;;;;;;4910506;29;20029;-76
2023/03/31 17:27:07;;;;;;;9.35;1.85;;;;;;;;;;4881233;29;20128;-77
2023/03/31 17:29:33;;;;;;;7.78;1.90;;;;;;;;;;4875030;29;20037;-78
2023/03/31 17:31:59;;;;;;;5.68;1.38;;;;;;;;;;4906894;29;20039;-76
2023/03/31 17:34:26;;;;;;;3.78;1.38;;;;;;;;;;4893137;29;20066;-75
2023/03/31 17:36:54;;;;;;;4.13;1.33;;;;;;;;;;4910613;29;20104;-76
2023/03/31 17:39:21;;;;;;;4.40;2.35;;;;;;;;;;4892039;29;20043;-75
2023/03/31 17:41:47;;;;;;;9.25;2.22;;;;;;;;;;4861978;29;20572;-76
2023/03/31 17:44:13;;;;;;;8.02;1.10;;;;;;;;;;4909382;29;20176;-76
2023/03/31 17:46:39;;;;;;;4.25;2.13;;;;;;;;;;4909529;29;20503;-77
2023/03/31 17:49:06;;;;;;;7.32;1.58;;;;;;;;;;4879872;29;20445;-77
2023/03/31 17:51:33;;;;;;;7.70;2.65;;;;;;;;;;4877738;29;20120;-76
2023/03/31 17:53:59;;;;;;;4.68;2.10;;;;;;;;;;4909916;29;20041;-77
2023/03/31 17:56:25;;;;;;;6.10;1.73;;;;;;;;;;4910688;29;20029;-76
2023/03/31 17:58:51;;;;;;;6.07;2.40;;;;;;;;;;4893923;29;20036;-77
2023/03/31 18:01:18;;;;;;;5.13;2.80;;;;;;;;;;4903607;29;20052;-76
2023/03/31 18:03:45;;;;;;;4.70;1.70;;;;;;;;;;4885252;29;20036;-76